Volkel, Nederland

1:12 PM CEST op 01 september 2014 (GMT +0200)
Boekel (buitengebied), NL | Change Station
CLOSE
Current Station
Persoonlijk weerstation
Location: Boekel, NORTH BRABANT
Geometrische hoogte: 59 ft
Nabije weerstations

Hoogte 59 ft 51.58 °N, 5.69 °E | Updated 10 minutes ago

Mostly Cloudy
Merendeels bewolkt
65.8 °F
Voelt als 65.8 °F
N
0.0
Wind Variabel Wind van WZW
Gusts 0.0 mijl/u

Vandaag
Hoog -- | Laag -- °F
--% Kans op neerslag
Gisteren
Hoog -- | Laag -- °F
Precip. -- inches
6:49 AM 8:24 PM
Wassende halvemaan, 40% visible
Druk 30.15 inches
Zicht 6.2 mijlen
Wolken Merendeels bewolkt 4800 ft
Merendeels bewolkt 5300 ft
Dauwpunt 56 °F
Vochtigheid 71%
Neerslag 0.01 inches
Dikte sneeuw Niet beschikbaar.
UV 3 van de 12
Pollen Niet beschikbaar.
Luchtkwaliteit Niet beschikbaar.
Flu Activity Niet beschikbaar.
METAR EHVK 011055Z AUTO 28006KT 9999 BKN048 BKN053 18/13 Q1021 BLU 27005KT 9999 SCT025

More Conditions Fewer Conditions

Druk 30.15 inches
Zicht 6.2 mijlen
Wolken Merendeels bewolkt 4800 ft
Merendeels bewolkt 5300 ft
Dauwpunt 56 °F
Vochtigheid 71%
Neerslag 0.01 inches
Dikte sneeuw Niet beschikbaar.
UV 3 van de 12
Pollen Niet beschikbaar.
Luchtkwaliteit Niet beschikbaar.
Flu Activity Niet beschikbaar.
METAR EHVK 011055Z AUTO 28006KT 9999 BKN048 BKN053 18/13 Q1021 BLU 27005KT 9999 SCT025

More Conditions Fewer Conditions

10-Day Weather Forecast

Almanac

Astronomie

Sep. 01, 2014 Opkomst Ondergang
Werkelijke tijd 6:49 AM CEST 8:24 PM CEST
Burgerlijke schemering 6:14 AM CEST 8:59 PM CEST
Nautische schemering 5:31 AM CEST 9:41 PM CEST
Astronomische schemering 4:43 AM CEST 10:29 PM CEST
Maan 2:06 PM CEST 11:24 PM CEST
Golflengte van het zichtbare licht 14h 44m
Daglengte
13h 34m
Tomorrow will be 3m 51s shorter.
Wassende halvemaan, 40% of the Moon is Illuminated
Vandaag
Wassende halvemaan
sep 2
Eerste kwartier
sep 8
Volle maan
sep 15
Laatste kwartier
sep 24
Nieuw

Extremen gisteren

Country Highs Country Lows

Community

WunderPhotos

Upload Photos

1,749,188 foto’s ge-upload!

Nearby

Luchtkwaliteit

Not available.

Dikte sneeuw

Not available.

Aardbevingen

Stad Distance Mag. Time & Date
No recent earthquake activity has been reported nearby.
Minimum magnitude displayed is 2.5.

Watertemperatuur langs de kust

Plaats Temperatuur
Geen meldingen van stations

Nabije weerstations